Time;durP1;ratioP1;P1;durP2;ratioP2;P2;SDS_P1;SDS_P2;PMS_P1;PMS_P2;Temp;Humidity;BMP_temperature;BMP_pressure;BME280_temperature;BME280_humidity;BME280_pressure;Samples;Min_cycle;Max_cycle;Signal;HPM_P1;HPM_P2
2023/05/12 00:01:45;;;;;;;12.50;2.40;;;;;;;;;;5003292;28;20073;-61
2023/05/12 00:04:11;;;;;;;10.98;2.22;;;;;;;;;;4991207;28;21317;-59
2023/05/12 00:06:37;;;;;;;7.93;1.90;;;;;;;;;;4990401;28;20045;-60
2023/05/12 00:09:03;;;;;;;8.10;1.70;;;;;;;;;;4994718;28;20049;-61
2023/05/12 00:11:29;;;;;;;10.18;2.00;;;;;;;;;;4991274;28;20241;-60
2023/05/12 00:13:55;;;;;;;12.40;2.22;;;;;;;;;;4990035;28;20057;-60
2023/05/12 00:16:21;;;;;;;8.55;1.85;;;;;;;;;;4990594;28;20494;-60
2023/05/12 00:18:46;;;;;;;13.73;2.13;;;;;;;;;;4976294;28;20046;-60
2023/05/12 00:21:13;;;;;;;10.68;2.22;;;;;;;;;;5008184;28;20410;-61
2023/05/12 00:23:39;;;;;;;4.97;1.60;;;;;;;;;;4986664;28;21793;-60
2023/05/12 00:26:05;;;;;;;8.13;1.95;;;;;;;;;;4989997;28;20085;-60
2023/05/12 00:28:31;;;;;;;11.27;1.98;;;;;;;;;;4989061;28;20266;-59
2023/05/12 00:31:01;;;;;;;11.63;2.00;;;;;;;;;;4987908;28;20506;-59
2023/05/12 00:33:27;;;;;;;11.25;2.15;;;;;;;;;;4989585;28;20537;-60
2023/05/12 00:35:53;;;;;;;8.82;1.90;;;;;;;;;;4990569;28;20733;-57
2023/05/12 00:38:19;;;;;;;8.68;2.08;;;;;;;;;;4989067;28;20151;-59
2023/05/12 00:40:45;;;;;;;9.98;2.13;;;;;;;;;;4988624;28;20115;-58
2023/05/12 00:43:11;;;;;;;9.20;2.00;;;;;;;;;;4991710;28;20064;-59
2023/05/12 00:45:37;;;;;;;11.23;2.20;;;;;;;;;;4991858;28;21077;-59
2023/05/12 00:48:05;;;;;;;7.30;1.95;;;;;;;;;;4991072;28;20121;-57
2023/05/12 00:50:31;;;;;;;7.38;1.60;;;;;;;;;;4990389;28;20045;-57
2023/05/12 00:52:59;;;;;;;6.75;1.60;;;;;;;;;;4989850;28;20061;-57
2023/05/12 00:55:25;;;;;;;7.32;1.98;;;;;;;;;;4989366;28;20605;-58
2023/05/12 00:57:52;;;;;;;9.27;2.30;;;;;;;;;;4986103;28;20062;-59
2023/05/12 01:00:18;;;;;;;6.25;1.63;;;;;;;;;;4991011;28;20061;-60
2023/05/12 01:02:44;;;;;;;9.57;1.75;;;;;;;;;;4988578;28;20064;-60
2023/05/12 01:05:11;;;;;;;9.85;2.17;;;;;;;;;;4988868;28;20057;-60
2023/05/12 01:07:38;;;;;;;8.05;2.08;;;;;;;;;;4986933;28;20100;-58
2023/05/12 01:10:16;;;;;;;8.60;2.17;;;;;;;;;;4988517;28;20056;-59
2023/05/12 01:12:41;;;;;;;14.02;2.50;;;;;;;;;;4988756;28;20073;-59
2023/05/12 01:15:09;;;;;;;11.55;2.35;;;;;;;;;;4990538;28;20120;-61
2023/05/12 01:17:36;;;;;;;9.20;2.97;;;;;;;;;;4989446;28;20136;-58
2023/05/12 01:20:07;;;;;;;9.10;1.90;;;;;;;;;;4985764;28;20062;-60
2023/05/12 01:22:34;;;;;;;9.25;1.98;;;;;;;;;;4994601;28;20053;-60
2023/05/12 01:25:07;;;;;;;9.82;2.70;;;;;;;;;;4989511;28;20128;-61
2023/05/12 01:27:35;;;;;;;8.85;2.33;;;;;;;;;;4989037;28;20058;-59
2023/05/12 01:30:03;;;;;;;7.28;1.80;;;;;;;;;;4990026;28;22782;-59
2023/05/12 01:32:31;;;;;;;7.78;1.75;;;;;;;;;;4989439;28;20045;-58
2023/05/12 01:34:57;;;;;;;11.07;1.92;;;;;;;;;;4987918;28;20058;-58
2023/05/12 01:37:26;;;;;;;5.22;1.70;;;;;;;;;;4987292;28;20572;-58
2023/05/12 01:39:53;;;;;;;5.30;1.52;;;;;;;;;;4989154;28;20057;-58
2023/05/12 01:42:18;;;;;;;7.40;1.52;;;;;;;;;;4988072;28;20049;-60
2023/05/12 01:44:45;;;;;;;9.60;1.90;;;;;;;;;;4989322;28;20288;-57
2023/05/12 01:47:11;;;;;;;6.07;1.42;;;;;;;;;;4989226;28;20062;-57
2023/05/12 01:49:37;;;;;;;7.50;2.05;;;;;;;;;;4987740;28;20439;-59
2023/05/12 01:52:03;;;;;;;5.40;1.77;;;;;;;;;;4989111;28;20361;-58
2023/05/12 01:54:29;;;;;;;6.68;1.65;;;;;;;;;;4987701;28;20061;-58
2023/05/12 01:56:55;;;;;;;8.15;1.65;;;;;;;;;;4988995;28;20049;-58
2023/05/12 01:59:21;;;;;;;7.75;1.77;;;;;;;;;;4988048;28;20111;-61
2023/05/12 02:01:47;;;;;;;6.22;1.90;;;;;;;;;;4990454;28;20041;-59
2023/05/12 02:04:13;;;;;;;8.02;1.73;;;;;;;;;;4986988;28;20065;-59
2023/05/12 02:06:39;;;;;;;7.00;1.50;;;;;;;;;;4989300;28;20056;-59
2023/05/12 02:09:05;;;;;;;3.92;1.30;;;;;;;;;;4994371;28;20049;-57
2023/05/12 02:11:31;;;;;;;7.10;1.65;;;;;;;;;;4988472;28;20072;-58
2023/05/12 02:13:57;;;;;;;7.70;1.70;;;;;;;;;;4985118;28;20061;-60
2023/05/12 02:16:23;;;;;;;8.32;1.67;;;;;;;;;;4988206;28;20050;-58
2023/05/12 02:18:51;;;;;;;5.07;1.48;;;;;;;;;;4988931;28;20057;-57
2023/05/12 02:21:17;;;;;;;4.88;1.70;;;;;;;;;;4993208;28;20053;-59
2023/05/12 02:23:43;;;;;;;5.10;1.58;;;;;;;;;;4991779;28;20053;-57
2023/05/12 02:26:09;;;;;;;5.15;1.60;;;;;;;;;;4968198;28;20050;-59
2023/05/12 02:28:38;;;;;;;6.35;1.60;;;;;;;;;;4989290;28;20058;-59
2023/05/12 02:31:05;;;;;;;6.43;1.73;;;;;;;;;;4965715;28;20512;-59
2023/05/12 02:33:31;;;;;;;6.65;2.00;;;;;;;;;;4990325;28;20053;-57
2023/05/12 02:35:57;;;;;;;4.65;1.60;;;;;;;;;;4989026;28;20075;-58
2023/05/12 02:38:23;;;;;;;8.82;2.17;;;;;;;;;;4988491;28;20061;-59
2023/05/12 02:40:48;;;;;;;6.90;1.63;;;;;;;;;;4988775;28;20611;-58
2023/05/12 02:43:14;;;;;;;5.38;1.80;;;;;;;;;;4990015;28;20098;-60
2023/05/12 02:45:40;;;;;;;7.93;1.70;;;;;;;;;;4990371;28;20281;-56
2023/05/12 02:48:06;;;;;;;7.55;1.65;;;;;;;;;;4986677;28;20151;-58
2023/05/12 02:50:32;;;;;;;6.03;1.90;;;;;;;;;;4988006;28;20517;-58
2023/05/12 02:52:58;;;;;;;7.15;1.85;;;;;;;;;;4988642;28;20046;-62
2023/05/12 02:55:24;;;;;;;5.75;1.90;;;;;;;;;;4987134;28;20596;-59
2023/05/12 02:57:52;;;;;;;6.40;1.80;;;;;;;;;;4986899;28;20160;-58
2023/05/12 03:00:17;;;;;;;5.07;1.60;;;;;;;;;;4987165;28;20532;-58
2023/05/12 03:02:44;;;;;;;3.88;1.30;;;;;;;;;;4987195;28;20058;-58
2023/05/12 03:05:09;;;;;;;4.65;1.42;;;;;;;;;;4989604;28;20064;-57
2023/05/12 03:07:36;;;;;;;7.00;1.98;;;;;;;;;;4990382;28;20061;-59
2023/05/12 03:10:02;;;;;;;7.13;1.30;;;;;;;;;;4994723;28;20120;-58
2023/05/12 03:12:28;;;;;;;6.30;1.48;;;;;;;;;;5000914;28;20421;-59
2023/05/12 03:14:55;;;;;;;6.55;1.75;;;;;;;;;;4991320;28;20088;-59
2023/05/12 03:17:21;;;;;;;10.85;1.77;;;;;;;;;;4990583;28;20355;-59
2023/05/12 03:19:46;;;;;;;8.38;2.33;;;;;;;;;;4995020;28;21138;-59
2023/05/12 03:22:13;;;;;;;6.43;1.95;;;;;;;;;;4990357;28;20050;-58
2023/05/12 03:24:39;;;;;;;9.35;1.83;;;;;;;;;;4990736;28;20046;-59
2023/05/12 03:27:05;;;;;;;7.30;1.60;;;;;;;;;;4987776;28;20053;-58
2023/05/12 03:29:31;;;;;;;4.20;1.45;;;;;;;;;;4989561;28;20054;-59
2023/05/12 03:31:57;;;;;;;4.03;1.20;;;;;;;;;;4990897;28;20041;-61
2023/05/12 03:34:22;;;;;;;4.32;1.10;;;;;;;;;;4989739;28;20054;-59
2023/05/12 03:36:49;;;;;;;4.13;1.05;;;;;;;;;;4989155;28;20272;-61
2023/05/12 03:39:15;;;;;;;2.53;1.30;;;;;;;;;;4986734;28;20052;-57
2023/05/12 03:41:42;;;;;;;2.17;0.80;;;;;;;;;;4990210;28;20053;-61
2023/05/12 03:44:08;;;;;;;2.92;0.95;;;;;;;;;;4989613;28;20116;-58
2023/05/12 03:46:36;;;;;;;3.40;0.85;;;;;;;;;;4988630;28;20060;-60
2023/05/12 03:49:02;;;;;;;1.58;0.80;;;;;;;;;;4997378;28;20058;-59
2023/05/12 03:51:29;;;;;;;2.22;1.00;;;;;;;;;;4988894;28;20113;-57
2023/05/12 03:53:55;;;;;;;3.53;1.00;;;;;;;;;;4989211;28;20383;-57
2023/05/12 03:56:21;;;;;;;8.13;1.63;;;;;;;;;;4989018;28;20128;-56
2023/05/12 03:58:47;;;;;;;4.65;1.23;;;;;;;;;;4989139;28;20143;-59
2023/05/12 04:01:14;;;;;;;3.33;1.20;;;;;;;;;;4990603;28;20669;-58
2023/05/12 04:03:40;;;;;;;3.30;1.25;;;;;;;;;;4986191;28;20050;-55
2023/05/12 04:06:06;;;;;;;4.18;1.30;;;;;;;;;;4983810;28;20061;-59
2023/05/12 04:08:33;;;;;;;6.22;1.90;;;;;;;;;;4988281;28;20053;-56
2023/05/12 04:11:00;;;;;;;3.15;1.42;;;;;;;;;;5004075;28;20058;-57
2023/05/12 04:13:27;;;;;;;5.47;1.58;;;;;;;;;;4996879;28;20491;-56
2023/05/12 04:15:57;;;;;;;4.93;1.35;;;;;;;;;;4982046;28;20050;-57
2023/05/12 04:18:27;;;;;;;1.92;1.17;;;;;;;;;;4998252;28;20450;-55
2023/05/12 04:20:54;;;;;;;2.85;1.10;;;;;;;;;;5005198;28;20080;-60
2023/05/12 04:23:21;;;;;;;3.55;1.23;;;;;;;;;;5002297;28;20050;-61
2023/05/12 04:25:48;;;;;;;5.47;1.52;;;;;;;;;;4992499;28;20045;-60
2023/05/12 04:28:14;;;;;;;6.93;1.00;;;;;;;;;;4988399;28;20066;-60
2023/05/12 04:30:41;;;;;;;2.70;1.00;;;;;;;;;;4992678;28;20489;-58
2023/05/12 04:33:08;;;;;;;3.35;1.10;;;;;;;;;;4991101;28;20080;-58
2023/05/12 04:35:35;;;;;;;4.40;1.10;;;;;;;;;;4990286;28;20718;-59
2023/05/12 04:38:01;;;;;;;2.63;1.00;;;;;;;;;;4990223;28;20056;-60
2023/05/12 04:40:27;;;;;;;3.78;1.20;;;;;;;;;;4988861;28;20104;-58
2023/05/12 04:42:53;;;;;;;2.95;1.02;;;;;;;;;;4971370;28;20053;-60
2023/05/12 04:45:19;;;;;;;4.10;1.30;;;;;;;;;;4991118;28;20070;-65
2023/05/12 04:47:45;;;;;;;2.60;0.88;;;;;;;;;;4996962;28;20101;-61
2023/05/12 04:50:11;;;;;;;4.85;1.10;;;;;;;;;;4990599;28;20065;-60
2023/05/12 04:52:37;;;;;;;2.05;1.05;;;;;;;;;;4990742;28;20054;-58
2023/05/12 04:55:04;;;;;;;2.08;0.90;;;;;;;;;;4991411;28;20073;-59
2023/05/12 04:57:32;;;;;;;1.83;1.33;;;;;;;;;;4992124;28;20109;-58
2023/05/12 04:59:58;;;;;;;4.97;1.20;;;;;;;;;;4971539;28;20061;-60
2023/05/12 05:02:25;;;;;;;2.85;0.93;;;;;;;;;;4989823;28;20053;-56
2023/05/12 05:04:51;;;;;;;4.05;1.17;;;;;;;;;;4990308;28;20062;-60
2023/05/12 05:07:17;;;;;;;1.67;1.08;;;;;;;;;;4991926;28;20418;-59
2023/05/12 05:09:43;;;;;;;4.25;0.90;;;;;;;;;;4993639;28;20061;-60
2023/05/12 05:12:09;;;;;;;2.15;1.15;;;;;;;;;;4990056;28;20062;-59
2023/05/12 05:14:35;;;;;;;2.45;0.90;;;;;;;;;;4990769;28;20407;-60
2023/05/12 05:17:02;;;;;;;3.42;1.00;;;;;;;;;;4988136;28;20049;-58
2023/05/12 05:19:28;;;;;;;5.00;1.00;;;;;;;;;;4993046;28;20053;-61
2023/05/12 05:21:54;;;;;;;2.70;1.05;;;;;;;;;;4997341;28;20053;-58
2023/05/12 05:24:20;;;;;;;4.80;1.08;;;;;;;;;;4991158;28;20069;-60
2023/05/12 05:26:46;;;;;;;4.85;1.70;;;;;;;;;;4991545;28;20065;-60
2023/05/12 05:29:12;;;;;;;3.45;1.88;;;;;;;;;;4991427;28;20410;-61
2023/05/12 05:31:38;;;;;;;2.80;1.40;;;;;;;;;;4989492;28;20461;-60
2023/05/12 05:34:04;;;;;;;4.40;1.38;;;;;;;;;;4986769;28;20042;-60
2023/05/12 05:36:30;;;;;;;2.58;1.17;;;;;;;;;;4989357;28;20050;-59
2023/05/12 05:38:55;;;;;;;2.22;1.00;;;;;;;;;;4988178;28;20513;-60
2023/05/12 05:41:22;;;;;;;3.78;1.17;;;;;;;;;;4987485;28;20116;-61
2023/05/12 05:43:48;;;;;;;3.08;1.38;;;;;;;;;;4987794;28;20363;-60
2023/05/12 05:46:14;;;;;;;3.10;1.10;;;;;;;;;;4987706;28;20058;-58
2023/05/12 05:48:40;;;;;;;4.15;1.15;;;;;;;;;;4990696;28;20042;-60
2023/05/12 05:51:06;;;;;;;3.28;1.08;;;;;;;;;;4988774;28;20066;-59
2023/05/12 05:53:32;;;;;;;4.40;1.20;;;;;;;;;;4988109;28;20056;-60
2023/05/12 05:55:58;;;;;;;1.60;0.85;;;;;;;;;;4988220;28;20061;-58
2023/05/12 05:58:24;;;;;;;5.28;1.00;;;;;;;;;;4987690;28;20699;-60
2023/05/12 06:00:50;;;;;;;4.15;1.02;;;;;;;;;;4989297;28;20061;-60
2023/05/12 06:03:16;;;;;;;3.88;1.00;;;;;;;;;;4988380;28;21433;-59
2023/05/12 06:05:42;;;;;;;2.88;1.10;;;;;;;;;;4990500;28;20061;-62
2023/05/12 06:08:11;;;;;;;1.38;1.00;;;;;;;;;;4991533;28;20421;-61
2023/05/12 06:10:39;;;;;;;4.15;1.05;;;;;;;;;;4994235;28;20046;-61
2023/05/12 06:13:06;;;;;;;4.00;1.15;;;;;;;;;;4991844;28;20482;-61
2023/05/12 06:15:32;;;;;;;7.43;1.30;;;;;;;;;;4987537;28;20066;-62
2023/05/12 06:18:38;;;;;;;2.53;1.02;;;;;;;;;;4989883;28;20626;-62
2023/05/12 06:22:18;;;;;;;7.53;2.38;;;;;;;;;;4992876;28;20151;-63
2023/05/12 06:25:58;;;;;;;6.63;1.50;;;;;;;;;;4993674;28;20065;-60
2023/05/12 06:29:39;;;;;;;1.85;0.85;;;;;;;;;;4987292;28;20054;-62
2023/05/12 06:33:20;;;;;;;4.07;1.05;;;;;;;;;;4989376;28;20049;-62
2023/05/12 06:37:00;;;;;;;7.95;2.78;;;;;;;;;;4990762;28;20493;-65
2023/05/12 06:40:40;;;;;;;13.10;1.58;;;;;;;;;;4989664;28;20049;-65
2023/05/12 06:44:20;;;;;;;5.63;1.20;;;;;;;;;;4988052;28;20549;-63
2023/05/12 06:48:02;;;;;;;3.40;1.00;;;;;;;;;;4988962;28;21778;-58
2023/05/12 06:51:41;;;;;;;7.10;1.40;;;;;;;;;;4988692;28;20247;-60
2023/05/12 06:55:21;;;;;;;2.80;1.20;;;;;;;;;;4988100;28;20050;-59
2023/05/12 06:59:03;;;;;;;5.88;1.08;;;;;;;;;;4990089;28;20057;-59
2023/05/12 07:02:42;;;;;;;6.03;1.10;;;;;;;;;;4989229;28;20129;-57
2023/05/12 07:06:23;;;;;;;7.55;1.70;;;;;;;;;;4988292;28;20049;-60
2023/05/12 07:10:03;;;;;;;6.85;1.40;;;;;;;;;;4990479;28;20240;-65
2023/05/12 07:13:44;;;;;;;4.32;1.10;;;;;;;;;;4986755;28;20049;-59
2023/05/12 07:17:24;;;;;;;2.58;1.30;;;;;;;;;;4988318;28;20057;-60
2023/05/12 07:21:04;;;;;;;5.00;1.25;;;;;;;;;;4992548;28;20050;-63
2023/05/12 07:24:45;;;;;;;1.73;0.90;;;;;;;;;;4987471;28;20611;-60
2023/05/12 07:28:25;;;;;;;3.03;1.20;;;;;;;;;;4986058;28;20048;-59
2023/05/12 07:32:06;;;;;;;4.90;1.02;;;;;;;;;;4986384;28;20065;-57
2023/05/12 07:35:47;;;;;;;6.43;1.48;;;;;;;;;;4985965;28;20049;-63
2023/05/12 07:39:06;;;;;;;13.30;1.92;;;;;;;;;;4988093;28;20200;-58
2023/05/12 07:42:12;;;;;;;6.57;1.25;;;;;;;;;;4987894;28;20061;-57
2023/05/12 07:45:54;;;;;;;4.45;1.40;;;;;;;;;;4986629;28;20259;-61
2023/05/12 07:49:33;;;;;;;3.55;0.90;;;;;;;;;;4984325;28;20054;-63
2023/05/12 07:52:33;;;;;;;4.68;1.45;;;;;;;;;;4985324;28;20490;-59
2023/05/12 07:54:59;;;;;;;7.93;1.05;;;;;;;;;;4987691;28;20053;-61
2023/05/12 07:57:25;;;;;;;4.55;1.33;;;;;;;;;;4967023;28;20121;-59
2023/05/12 07:59:51;;;;;;;7.45;1.33;;;;;;;;;;4987368;28;20065;-58
2023/05/12 08:02:17;;;;;;;3.38;1.00;;;;;;;;;;4986733;28;20054;-59
2023/05/12 08:04:44;;;;;;;2.83;0.80;;;;;;;;;;4988661;28;20141;-60
2023/05/12 08:07:10;;;;;;;3.10;0.70;;;;;;;;;;4988562;28;20107;-60
2023/05/12 08:09:36;;;;;;;7.22;0.70;;;;;;;;;;4992261;28;20072;-60
2023/05/12 08:12:02;;;;;;;5.40;1.55;;;;;;;;;;4989097;28;20481;-61
2023/05/12 08:14:28;;;;;;;4.05;1.08;;;;;;;;;;4990170;28;20053;-64
2023/05/12 08:16:53;;;;;;;3.00;1.05;;;;;;;;;;4988853;28;20050;-61
2023/05/12 08:19:19;;;;;;;9.82;1.08;;;;;;;;;;4991853;28;20112;-61
2023/05/12 08:21:45;;;;;;;2.17;1.00;;;;;;;;;;4990208;28;20061;-60
2023/05/12 08:24:11;;;;;;;4.53;1.38;;;;;;;;;;4988574;28;20066;-60
2023/05/12 08:26:37;;;;;;;1.85;1.05;;;;;;;;;;4987882;28;20068;-59
2023/05/12 08:29:04;;;;;;;2.30;1.00;;;;;;;;;;4988899;28;20052;-61
2023/05/12 08:31:31;;;;;;;4.15;1.25;;;;;;;;;;4989203;28;20058;-60
2023/05/12 08:33:57;;;;;;;1.85;0.90;;;;;;;;;;4989531;28;20446;-61
2023/05/12 08:36:23;;;;;;;4.75;0.90;;;;;;;;;;4989749;28;20610;-62
2023/05/12 08:38:49;;;;;;;5.65;0.93;;;;;;;;;;4989282;28;21254;-61
2023/05/12 08:41:21;;;;;;;7.93;1.30;;;;;;;;;;4988769;28;20123;-61
2023/05/12 08:43:51;;;;;;;7.00;1.15;;;;;;;;;;4990025;28;20058;-60
2023/05/12 08:46:18;;;;;;;6.18;1.30;;;;;;;;;;4989623;28;20123;-60
2023/05/12 08:48:46;;;;;;;3.60;1.27;;;;;;;;;;4989687;28;20045;-59
2023/05/12 08:51:13;;;;;;;2.72;1.08;;;;;;;;;;4992307;28;20081;-61
2023/05/12 08:53:41;;;;;;;5.18;1.00;;;;;;;;;;4988644;28;20068;-61
2023/05/12 08:56:09;;;;;;;16.50;1.20;;;;;;;;;;4989289;28;20052;-61
2023/05/12 08:58:36;;;;;;;2.78;1.10;;;;;;;;;;4989680;28;20061;-61
2023/05/12 09:01:06;;;;;;;6.00;1.50;;;;;;;;;;4989784;28;20085;-62
2023/05/12 09:03:33;;;;;;;9.70;2.08;;;;;;;;;;4986789;28;20058;-59
2023/05/12 09:06:00;;;;;;;2.28;0.95;;;;;;;;;;4990582;28;20054;-60
2023/05/12 09:08:28;;;;;;;8.50;1.45;;;;;;;;;;4990989;28;20053;-60
2023/05/12 09:10:57;;;;;;;7.07;1.50;;;;;;;;;;4992798;28;20136;-60
2023/05/12 09:13:59;;;;;;;4.57;1.50;;;;;;;;;;4992036;28;20268;-61
2023/05/12 09:16:28;;;;;;;2.33;1.38;;;;;;;;;;4938446;28;21340;-60
2023/05/12 09:18:56;;;;;;;3.67;1.35;;;;;;;;;;4990490;28;20149;-61
2023/05/12 09:21:22;;;;;;;3.55;1.60;;;;;;;;;;4996709;28;20062;-59
2023/05/12 09:23:56;;;;;;;6.78;1.63;;;;;;;;;;4993150;28;20045;-58
2023/05/12 09:26:23;;;;;;;;;;;;;;;;;;4998440;28;20050;-57
2023/05/12 09:28:51;;;;;;;10.23;2.40;;;;;;;;;;4996097;28;19936;-59
2023/05/12 09:31:19;;;;;;;8.05;1.92;;;;;;;;;;4994018;28;20061;-58
2023/05/12 09:33:45;;;;;;;4.05;1.13;;;;;;;;;;4992220;28;20050;-61
2023/05/12 09:36:19;;;;;;;4.60;1.20;;;;;;;;;;4990500;28;20433;-60
2023/05/12 09:38:45;;;;;;;3.72;1.58;;;;;;;;;;4992691;28;20042;-62
2023/05/12 09:41:10;;;;;;;5.70;1.17;;;;;;;;;;4991902;28;20060;-61
2023/05/12 09:43:43;;;;;;;6.50;1.30;;;;;;;;;;4993955;28;20046;-62
2023/05/12 09:46:09;;;;;;;2.20;1.00;;;;;;;;;;4992405;28;20321;-61
2023/05/12 09:48:37;;;;;;;7.13;1.40;;;;;;;;;;4991318;28;20053;-60
2023/05/12 09:51:04;;;;;;;5.28;1.35;;;;;;;;;;4991124;28;20054;-58
2023/05/12 09:53:30;;;;;;;10.70;1.80;;;;;;;;;;4989494;28;20053;-60
2023/05/12 09:56:36;;;;;;;9.57;1.48;;;;;;;;;;4987304;28;20448;-58
2023/05/12 10:00:17;;;;;;;7.78;1.20;;;;;;;;;;4986533;28;20715;-60
2023/05/12 10:03:56;;;;;;;6.70;1.20;;;;;;;;;;4989155;28;20068;-56
2023/05/12 10:07:37;;;;;;;3.35;1.20;;;;;;;;;;4985266;28;20058;-59
2023/05/12 10:11:17;;;;;;;4.15;1.30;;;;;;;;;;4992707;28;20050;-58
2023/05/12 10:14:57;;;;;;;2.33;1.00;;;;;;;;;;4986898;28;20281;-56
2023/05/12 10:18:38;;;;;;;3.17;1.00;;;;;;;;;;4985886;28;20064;-59
2023/05/12 10:22:18;;;;;;;7.70;1.58;;;;;;;;;;4985244;28;20050;-57
2023/05/12 10:26:01;;;;;;;4.20;1.33;;;;;;;;;;4987037;28;20049;-54
2023/05/12 10:29:40;;;;;;;3.92;1.20;;;;;;;;;;4984952;28;20041;-58
2023/05/12 10:33:21;;;;;;;4.72;1.52;;;;;;;;;;4986407;28;20046;-57
2023/05/12 10:37:02;;;;;;;4.35;1.13;;;;;;;;;;4988183;28;20673;-59
2023/05/12 10:40:41;;;;;;;5.18;1.40;;;;;;;;;;4981633;28;20057;-62
2023/05/12 10:44:22;;;;;;;4.55;1.42;;;;;;;;;;4976613;28;20613;-59
2023/05/12 10:48:05;;;;;;;4.68;1.40;;;;;;;;;;4982348;28;20064;-61
2023/05/12 10:51:45;;;;;;;1.70;0.90;;;;;;;;;;4983493;28;20049;-62
2023/05/12 10:55:26;;;;;;;7.88;1.27;;;;;;;;;;4983437;28;20053;-60
2023/05/12 10:59:06;;;;;;;5.93;1.20;;;;;;;;;;4979467;28;20691;-64
2023/05/12 11:02:55;;;;;;;5.22;1.23;;;;;;;;;;4985753;28;20057;-62
2023/05/12 11:06:39;;;;;;;4.97;1.38;;;;;;;;;;4982671;28;20100;-65
2023/05/12 11:10:19;;;;;;;6.28;1.17;;;;;;;;;;4988347;28;20108;-64
2023/05/12 11:14:01;;;;;;;6.13;1.45;;;;;;;;;;4985913;28;20056;-61
2023/05/12 11:17:40;;;;;;;4.72;1.25;;;;;;;;;;4982234;28;20257;-62
2023/05/12 11:21:20;;;;;;;4.88;1.10;;;;;;;;;;4993315;28;20045;-64
2023/05/12 11:25:00;;;;;;;3.83;1.20;;;;;;;;;;4994877;28;20054;-58
2023/05/12 11:28:41;;;;;;;4.22;0.98;;;;;;;;;;4983993;28;20073;-60
2023/05/12 11:32:21;;;;;;;3.65;1.10;;;;;;;;;;4982352;28;20450;-61
2023/05/12 11:36:01;;;;;;;5.47;1.20;;;;;;;;;;4982669;28;20053;-62
2023/05/12 11:39:42;;;;;;;6.15;1.60;;;;;;;;;;4978803;28;20050;-63
2023/05/12 11:43:22;;;;;;;4.47;1.10;;;;;;;;;;4983383;28;20050;-63
2023/05/12 11:47:07;;;;;;;4.88;1.40;;;;;;;;;;4985801;28;20046;-63
2023/05/12 11:50:47;;;;;;;2.13;1.25;;;;;;;;;;4981784;28;20375;-61
2023/05/12 11:54:29;;;;;;;1.90;0.80;;;;;;;;;;4984899;28;20498;-62
2023/05/12 11:58:21;;;;;;;3.38;1.10;;;;;;;;;;4986762;28;20057;-59
2023/05/12 12:02:05;;;;;;;2.50;1.05;;;;;;;;;;4972411;28;20297;-60
2023/05/12 12:05:45;;;;;;;3.05;0.90;;;;;;;;;;4978702;28;20049;-61
2023/05/12 12:09:28;;;;;;;4.00;0.93;;;;;;;;;;4983649;28;20049;-62
2023/05/12 12:13:09;;;;;;;1.58;0.63;;;;;;;;;;4984042;28;20250;-60
2023/05/12 12:16:49;;;;;;;1.40;0.50;;;;;;;;;;4987187;28;20649;-59
2023/05/12 12:20:30;;;;;;;2.70;0.82;;;;;;;;;;4991583;28;20042;-62
2023/05/12 12:24:10;;;;;;;1.15;0.60;;;;;;;;;;4984774;28;20058;-63
2023/05/12 12:27:51;;;;;;;2.08;0.68;;;;;;;;;;4984579;28;20084;-58
2023/05/12 12:31:30;;;;;;;2.30;0.90;;;;;;;;;;4981798;28;20429;-59
2023/05/12 12:35:12;;;;;;;1.17;0.70;;;;;;;;;;4983297;28;20056;-60
2023/05/12 12:38:51;;;;;;;1.48;0.80;;;;;;;;;;4984928;28;20050;-62
2023/05/12 12:42:31;;;;;;;2.78;1.13;;;;;;;;;;4976078;28;20592;-64
2023/05/12 12:46:12;;;;;;;4.15;1.27;;;;;;;;;;4979422;28;20246;-67
2023/05/12 12:49:55;;;;;;;1.52;0.73;;;;;;;;;;4982748;28;20057;-60
2023/05/12 12:53:36;;;;;;;3.47;1.33;;;;;;;;;;4989912;28;20099;-61
2023/05/12 12:57:16;;;;;;;2.78;0.60;;;;;;;;;;4985881;28;20050;-59
2023/05/12 13:00:56;;;;;;;2.03;0.90;;;;;;;;;;4985446;28;20061;-61
2023/05/12 13:04:36;;;;;;;2.83;1.13;;;;;;;;;;4982927;28;20081;-60
2023/05/12 13:08:18;;;;;;;5.13;1.15;;;;;;;;;;4979697;28;20053;-60
2023/05/12 13:11:58;;;;;;;1.38;0.60;;;;;;;;;;4979916;28;20046;-60
2023/05/12 13:15:39;;;;;;;4.63;0.77;;;;;;;;;;4985339;28;20474;-63
2023/05/12 13:19:20;;;;;;;3.30;0.80;;;;;;;;;;4986682;28;20107;-62
2023/05/12 13:22:59;;;;;;;3.10;1.13;;;;;;;;;;4985791;28;21732;-62
2023/05/12 13:26:40;;;;;;;2.45;1.15;;;;;;;;;;4981783;28;20179;-66
2023/05/12 13:30:21;;;;;;;2.08;0.80;;;;;;;;;;4985482;28;22821;-63
2023/05/12 13:34:00;;;;;;;2.00;1.10;;;;;;;;;;4983666;28;20045;-64
2023/05/12 13:37:41;;;;;;;2.85;1.50;;;;;;;;;;4984521;28;20164;-66
2023/05/12 13:41:21;;;;;;;3.28;0.77;;;;;;;;;;4984021;28;20600;-66
2023/05/12 13:45:01;;;;;;;1.52;0.70;;;;;;;;;;4979651;28;20074;-63
2023/05/12 13:48:41;;;;;;;1.35;0.47;;;;;;;;;;4983156;28;20445;-63
2023/05/12 13:52:22;;;;;;;3.55;0.80;;;;;;;;;;4983937;28;20058;-65
2023/05/12 13:56:02;;;;;;;1.42;0.80;;;;;;;;;;4982379;28;20050;-63
2023/05/12 13:59:42;;;;;;;4.60;1.00;;;;;;;;;;4985845;28;20462;-63
2023/05/12 14:03:25;;;;;;;2.47;0.82;;;;;;;;;;4979992;28;20156;-65
2023/05/12 14:07:05;;;;;;;2.08;0.80;;;;;;;;;;4983053;28;20065;-64
2023/05/12 14:10:45;;;;;;;3.50;0.60;;;;;;;;;;4990232;28;20426;-66
2023/05/12 14:14:26;;;;;;;3.05;1.00;;;;;;;;;;4985821;28;20049;-64
2023/05/12 14:18:06;;;;;;;2.45;1.00;;;;;;;;;;4984598;28;20038;-64
2023/05/12 14:21:47;;;;;;;2.63;0.60;;;;;;;;;;4994356;28;20541;-64
2023/05/12 14:25:29;;;;;;;1.70;0.65;;;;;;;;;;4982689;28;20140;-66
2023/05/12 14:29:08;;;;;;;4.20;0.70;;;;;;;;;;4984183;28;20172;-65
2023/05/12 14:32:48;;;;;;;1.10;0.50;;;;;;;;;;4983623;28;20079;-65
2023/05/12 14:36:29;;;;;;;1.35;0.57;;;;;;;;;;4982905;28;20061;-67
2023/05/12 14:40:09;;;;;;;4.13;0.70;;;;;;;;;;4979742;28;20060;-65
2023/05/12 14:43:49;;;;;;;4.50;1.15;;;;;;;;;;4985328;28;20065;-66
2023/05/12 14:47:30;;;;;;;2.00;0.73;;;;;;;;;;4986287;28;20050;-61
2023/05/12 14:51:13;;;;;;;1.13;0.55;;;;;;;;;;4986867;28;20573;-61
2023/05/12 14:54:54;;;;;;;1.73;0.82;;;;;;;;;;4987167;28;20596;-64
2023/05/12 14:58:34;;;;;;;5.03;1.20;;;;;;;;;;4987634;28;20041;-64
2023/05/12 15:02:14;;;;;;;8.07;1.20;;;;;;;;;;4986007;28;20061;-60
2023/05/12 15:05:55;;;;;;;4.63;1.00;;;;;;;;;;4988916;28;20639;-63
2023/05/12 15:09:35;;;;;;;2.42;0.95;;;;;;;;;;4989350;28;20045;-62
2023/05/12 15:13:18;;;;;;;5.85;1.10;;;;;;;;;;4988212;28;20049;-62
2023/05/12 15:16:56;;;;;;;3.47;0.80;;;;;;;;;;4986855;28;20046;-62
2023/05/12 15:20:37;;;;;;;5.18;1.35;;;;;;;;;;4986672;28;20351;-61
2023/05/12 15:24:17;;;;;;;6.28;0.90;;;;;;;;;;4990520;28;20073;-62
2023/05/12 15:27:57;;;;;;;4.65;0.90;;;;;;;;;;4985207;28;20537;-64
2023/05/12 15:31:38;;;;;;;3.65;1.20;;;;;;;;;;4985299;28;20045;-62
2023/05/12 15:35:18;;;;;;;6.28;0.90;;;;;;;;;;4985371;28;20124;-61
2023/05/12 15:38:58;;;;;;;3.92;1.20;;;;;;;;;;4987586;28;20395;-63
2023/05/12 15:42:38;;;;;;;3.35;0.93;;;;;;;;;;4986368;28;20053;-61
2023/05/12 15:46:20;;;;;;;4.70;1.15;;;;;;;;;;4985448;28;20081;-61
2023/05/12 15:49:59;;;;;;;4.00;1.10;;;;;;;;;;4985590;28;20107;-62
2023/05/12 15:53:40;;;;;;;3.83;0.50;;;;;;;;;;4986002;28;20447;-66
2023/05/12 15:57:20;;;;;;;2.63;1.00;;;;;;;;;;4987597;28;20120;-65
2023/05/12 16:01:00;;;;;;;2.75;0.93;;;;;;;;;;4984574;28;20474;-66
2023/05/12 16:04:41;;;;;;;4.00;0.95;;;;;;;;;;4983685;28;20082;-64
2023/05/12 16:08:22;;;;;;;4.85;1.08;;;;;;;;;;4985391;28;20049;-61
2023/05/12 16:12:02;;;;;;;5.72;1.27;;;;;;;;;;4985225;28;20085;-61
2023/05/12 16:15:42;;;;;;;3.78;0.90;;;;;;;;;;5000610;28;20067;-62
2023/05/12 16:19:22;;;;;;;3.10;0.88;;;;;;;;;;5004300;28;20054;-63
2023/05/12 16:23:03;;;;;;;4.68;1.05;;;;;;;;;;5000292;28;20053;-63
2023/05/12 16:26:43;;;;;;;4.10;1.08;;;;;;;;;;5002975;28;20124;-63
2023/05/12 16:30:23;;;;;;;2.67;0.85;;;;;;;;;;4988589;28;20081;-63
2023/05/12 16:34:04;;;;;;;2.63;0.80;;;;;;;;;;4989916;28;20112;-62
2023/05/12 16:37:44;;;;;;;4.40;1.30;;;;;;;;;;4990687;28;20050;-64
2023/05/12 16:41:25;;;;;;;4.63;0.80;;;;;;;;;;4989617;28;20058;-63
2023/05/12 16:45:05;;;;;;;4.00;0.90;;;;;;;;;;4986598;28;20469;-63
2023/05/12 16:48:45;;;;;;;3.13;1.10;;;;;;;;;;4987560;28;20164;-62
2023/05/12 16:52:25;;;;;;;4.75;1.02;;;;;;;;;;4990312;28;20084;-63
2023/05/12 16:56:06;;;;;;;2.65;1.17;;;;;;;;;;4990822;28;20064;-64
2023/05/12 16:59:49;;;;;;;3.95;0.90;;;;;;;;;;4987208;28;20505;-65
2023/05/12 17:03:30;;;;;;;3.28;1.20;;;;;;;;;;4985737;28;20434;-66
2023/05/12 17:07:10;;;;;;;2.65;0.93;;;;;;;;;;4985816;28;20402;-65
2023/05/12 17:10:50;;;;;;;4.40;1.20;;;;;;;;;;4990770;28;20137;-64
2023/05/12 17:14:30;;;;;;;3.38;1.00;;;;;;;;;;4990273;28;20095;-63
2023/05/12 17:18:11;;;;;;;4.05;1.10;;;;;;;;;;4987954;28;20049;-67
2023/05/12 17:21:51;;;;;;;2.33;0.90;;;;;;;;;;4994430;28;20124;-64
2023/05/12 17:25:31;;;;;;;2.30;1.17;;;;;;;;;;4988315;28;20045;-62
2023/05/12 17:29:12;;;;;;;4.03;1.48;;;;;;;;;;4989107;28;20057;-62
2023/05/12 17:32:52;;;;;;;5.97;1.08;;;;;;;;;;4989255;28;20049;-65
2023/05/12 17:36:32;;;;;;;2.88;1.13;;;;;;;;;;4984997;28;20405;-65
2023/05/12 17:40:13;;;;;;;7.97;1.30;;;;;;;;;;4990564;28;20164;-67
2023/05/12 17:43:53;;;;;;;3.80;1.00;;;;;;;;;;4981574;28;20582;-64
2023/05/12 17:47:07;;;;;;;4.90;1.00;;;;;;;;;;4983142;28;20052;-64
2023/05/12 17:50:48;;;;;;;6.43;1.20;;;;;;;;;;4983274;28;20129;-64